Time;durP1;ratioP1;P1;durP2;ratioP2;P2;SDS_P1;SDS_P2;PMS_P1;PMS_P2;Temp;Humidity;BMP_temperature;BMP_pressure;BME280_temperature;BME280_humidity;BME280_pressure;Samples;Min_cycle;Max_cycle;Signal;HPM_P1;HPM_P2
2022/03/14 00:01:36;;;;;;;12.50;6.47;;;5.60;46.80;;;;;;5074697;28;20236;-71
2022/03/14 00:04:03;;;;;;;8.30;5.30;;;5.60;46.90;;;;;;5074360;28;20176;-71
2022/03/14 00:06:28;;;;;;;7.53;6.37;;;5.50;46.90;;;;;;5074624;28;20409;-72
2022/03/14 00:08:55;;;;;;;6.80;5.40;;;5.50;46.90;;;;;;5074364;28;20393;-71
2022/03/14 00:11:23;;;;;;;6.27;4.60;;;5.50;47.00;;;;;;5074195;28;20269;-71
2022/03/14 00:13:50;;;;;;;10.07;4.83;;;5.50;46.90;;;;;;5074117;28;20416;-71
2022/03/14 00:16:24;;;;;;;8.20;5.13;;;5.50;47.00;;;;;;5074268;28;20444;-71
2022/03/14 00:18:51;;;;;;;7.77;7.00;;;5.50;47.00;;;;;;5074406;28;20487;-71
2022/03/14 00:21:25;;;;;;;6.80;5.33;;;5.50;47.00;;;;;;5074086;28;20468;-72
2022/03/14 00:23:52;;;;;;;6.70;4.43;;;5.50;47.10;;;;;;5073987;28;20473;-70
2022/03/14 00:26:19;;;;;;;10.40;5.20;;;5.50;47.10;;;;;;5073933;28;20411;-71
2022/03/14 00:28:45;;;;;;;10.00;5.40;;;5.50;47.10;;;;;;5074029;28;20404;-72
2022/03/14 00:31:10;;;;;;;6.80;5.80;;;5.50;47.20;;;;;;5074022;28;21010;-71
2022/03/14 00:33:39;;;;;;;8.67;5.10;;;5.50;47.10;;;;;;5073700;28;20190;-72
2022/03/14 00:36:05;;;;;;;7.70;5.83;;;5.50;47.20;;;;;;5073948;28;20265;-72
2022/03/14 00:38:31;;;;;;;16.07;5.40;;;5.40;47.20;;;;;;5073608;28;20482;-72
2022/03/14 00:40:57;;;;;;;11.50;5.70;;;5.40;47.10;;;;;;5073273;28;20354;-72
2022/03/14 00:43:22;;;;;;;11.97;6.07;;;5.40;47.20;;;;;;5073697;28;20927;-72
2022/03/14 00:45:48;;;;;;;6.40;5.47;;;5.40;47.30;;;;;;5073782;28;20174;-70
2022/03/14 00:48:13;;;;;;;8.53;6.10;;;5.40;47.40;;;;;;5073792;28;20167;-71
2022/03/14 00:50:39;;;;;;;13.63;5.70;;;5.40;47.60;;;;;;5072355;28;20570;-71
2022/03/14 00:53:04;;;;;;;10.70;5.77;;;5.30;47.50;;;;;;5074059;28;20178;-71
2022/03/14 00:55:30;;;;;;;11.50;5.10;;;5.30;47.60;;;;;;5073882;28;20170;-72
2022/03/14 00:57:55;;;;;;;9.10;6.53;;;5.30;47.70;;;;;;5073238;28;20178;-72
2022/03/14 01:00:21;;;;;;;9.20;6.63;;;5.20;47.70;;;;;;5073396;28;20186;-71
2022/03/14 01:02:48;;;;;;;12.30;5.27;;;5.20;47.90;;;;;;5073381;28;20197;-72
2022/03/14 01:05:13;;;;;;;17.03;8.00;;;5.20;48.00;;;;;;5073097;28;20408;-71
2022/03/14 01:07:39;;;;;;;9.90;5.83;;;5.10;47.80;;;;;;5073723;28;20403;-72
2022/03/14 01:10:05;;;;;;;10.93;5.57;;;5.20;48.00;;;;;;5073615;28;20700;-72
2022/03/14 01:12:31;;;;;;;7.60;5.13;;;5.10;48.00;;;;;;5072999;28;20181;-72
2022/03/14 01:14:56;;;;;;;13.40;6.67;;;5.10;48.10;;;;;;5073076;28;20408;-72
2022/03/14 01:17:22;;;;;;;8.13;5.50;;;5.00;48.10;;;;;;5072184;28;20632;-72
2022/03/14 01:19:47;;;;;;;6.90;5.80;;;5.00;48.10;;;;;;5073034;28;20233;-72
2022/03/14 01:22:13;;;;;;;6.10;5.57;;;5.00;48.20;;;;;;5072848;28;20229;-72
2022/03/14 01:24:39;;;;;;;10.50;5.50;;;5.00;48.30;;;;;;5072674;28;20170;-70
2022/03/14 01:27:06;;;;;;;7.27;5.50;;;4.90;48.50;;;;;;5073302;28;20220;-71
2022/03/14 01:29:31;;;;;;;6.93;5.47;;;4.90;48.50;;;;;;5073084;28;20417;-72
2022/03/14 01:31:58;;;;;;;16.43;6.30;;;4.90;48.60;;;;;;5073221;28;20416;-71
2022/03/14 01:34:24;;;;;;;10.23;5.67;;;4.90;48.70;;;;;;5075848;28;20177;-72
2022/03/14 01:36:50;;;;;;;9.00;7.17;;;4.80;48.80;;;;;;5076764;28;20405;-71
2022/03/14 01:39:15;;;;;;;7.53;5.53;;;4.80;48.80;;;;;;5072354;28;20412;-70
2022/03/14 01:41:41;;;;;;;12.33;5.63;;;4.80;48.90;;;;;;5073210;23;20644;-67
2022/03/14 01:44:06;;;;;;;7.33;5.33;;;4.80;49.00;;;;;;5031817;28;20713;-67
2022/03/14 01:46:32;;;;;;;5.83;5.30;;;4.80;49.20;;;;;;5031850;28;20239;-67
2022/03/14 01:48:58;;;;;;;12.50;7.17;;;4.70;49.10;;;;;;5032213;28;20168;-66
2022/03/14 01:51:23;;;;;;;8.03;5.07;;;4.70;49.30;;;;;;5032014;28;20242;-67
2022/03/14 01:53:49;;;;;;;12.90;5.70;;;4.70;49.20;;;;;;5031734;28;20394;-67
2022/03/14 01:56:16;;;;;;;7.03;5.73;;;4.60;49.30;;;;;;5031927;28;20172;-67
2022/03/14 01:58:42;;;;;;;7.70;4.47;;;4.60;49.60;;;;;;5031871;28;20259;-66
2022/03/14 02:01:08;;;;;;;9.70;7.10;;;4.60;49.50;;;;;;5031365;28;20454;-67
2022/03/14 02:03:33;;;;;;;9.50;6.10;;;4.60;49.70;;;;;;5031145;28;20411;-66
2022/03/14 02:05:58;;;;;;;12.23;5.73;;;4.50;49.80;;;;;;5031490;28;20194;-67
2022/03/14 02:08:24;;;;;;;13.60;6.60;;;4.40;49.90;;;;;;5023515;28;20180;-66
2022/03/14 02:10:50;;;;;;;10.60;5.60;;;4.40;50.10;;;;;;5011369;28;20192;-66
2022/03/14 02:13:16;;;;;;;11.43;5.30;;;4.40;50.20;;;;;;5011931;28;20164;-66
2022/03/14 02:15:41;;;;;;;9.10;5.87;;;4.40;50.20;;;;;;5011585;28;20411;-66
2022/03/14 02:18:07;;;;;;;5.03;4.53;;;4.40;50.10;;;;;;5011668;28;20199;-67
2022/03/14 02:20:33;;;;;;;15.37;6.30;;;4.40;50.20;;;;;;5011634;28;20192;-66
2022/03/14 02:22:58;;;;;;;10.67;5.13;;;4.30;50.20;;;;;;5011594;28;20176;-67
2022/03/14 02:25:24;;;;;;;6.03;5.27;;;4.30;50.20;;;;;;5011902;28;20406;-66
2022/03/14 02:27:50;;;;;;;10.23;5.53;;;4.30;50.30;;;;;;5011859;28;20165;-65
2022/03/14 02:30:15;;;;;;;11.13;5.80;;;4.30;50.40;;;;;;5011633;28;20671;-66
2022/03/14 02:32:42;;;;;;;7.20;5.40;;;4.30;50.30;;;;;;5011514;28;20188;-65
2022/03/14 02:35:09;;;;;;;11.10;7.10;;;4.30;50.40;;;;;;5011631;28;20176;-66
2022/03/14 02:37:35;;;;;;;9.03;5.33;;;4.30;50.30;;;;;;5011714;28;20450;-66
2022/03/14 02:40:01;;;;;;;9.93;5.20;;;4.20;50.30;;;;;;5011533;28;20407;-66
2022/03/14 02:42:27;;;;;;;8.43;6.43;;;4.30;50.40;;;;;;5011635;28;20471;-67
2022/03/14 02:44:52;;;;;;;9.53;6.93;;;4.20;50.40;;;;;;5011385;28;20411;-66
2022/03/14 02:47:19;;;;;;;7.57;4.67;;;4.20;50.50;;;;;;5011679;28;20249;-67
2022/03/14 02:49:44;;;;;;;9.63;6.33;;;4.20;50.50;;;;;;5011686;28;20251;-66
2022/03/14 02:52:10;;;;;;;6.50;5.33;;;4.10;50.70;;;;;;5011307;28;20930;-66
2022/03/14 02:54:36;;;;;;;13.73;7.30;;;4.10;50.80;;;;;;5011484;28;20212;-67
2022/03/14 02:57:02;;;;;;;10.37;6.67;;;4.10;50.90;;;;;;5011642;28;20176;-66
2022/03/14 02:59:27;;;;;;;6.53;4.87;;;4.10;51.00;;;;;;5011354;28;20411;-66
2022/03/14 03:01:53;;;;;;;11.30;5.33;;;4.00;51.10;;;;;;5011446;28;20214;-66
2022/03/14 03:04:18;;;;;;;7.97;4.87;;;4.00;51.00;;;;;;5011313;28;20578;-67
2022/03/14 03:06:45;;;;;;;9.63;6.67;;;4.00;51.10;;;;;;5011225;28;20219;-66
2022/03/14 03:09:10;;;;;;;7.73;5.83;;;3.90;51.10;;;;;;5011457;28;20168;-67
2022/03/14 03:11:36;;;;;;;6.77;4.87;;;3.90;51.10;;;;;;5011533;28;20489;-67
2022/03/14 03:14:02;;;;;;;7.30;5.60;;;3.90;51.10;;;;;;5011439;28;20176;-66
2022/03/14 03:16:27;;;;;;;12.80;6.37;;;3.90;51.30;;;;;;5011216;28;20540;-66
2022/03/14 03:18:53;;;;;;;5.87;5.00;;;3.90;51.40;;;;;;5011418;28;20585;-66
2022/03/14 03:21:19;;;;;;;10.30;6.03;;;3.90;51.40;;;;;;4993671;28;20254;-66
2022/03/14 03:23:45;;;;;;;10.27;5.97;;;3.90;51.30;;;;;;5014452;28;20490;-66
2022/03/14 03:26:11;;;;;;;14.07;6.13;;;3.90;51.20;;;;;;5015068;28;20168;-67
2022/03/14 03:28:36;;;;;;;6.57;5.47;;;3.90;51.10;;;;;;5014945;28;20414;-67
2022/03/14 03:31:11;;;;;;;8.03;4.87;;;3.90;51.10;;;;;;5015183;28;20558;-66
2022/03/14 03:33:37;;;;;;;12.43;6.23;;;3.90;51.10;;;;;;5014751;28;20175;-67
2022/03/14 03:36:04;;;;;;;13.80;5.33;;;3.90;51.10;;;;;;5014540;28;20419;-66
2022/03/14 03:38:30;;;;;;;11.13;5.07;;;3.90;51.10;;;;;;5014498;28;20417;-66
2022/03/14 03:40:55;;;;;;;8.87;5.93;;;3.80;51.10;;;;;;5014441;28;20450;-66
2022/03/14 03:43:21;;;;;;;8.27;4.80;;;3.90;51.20;;;;;;5014404;28;20191;-67
2022/03/14 03:45:47;;;;;;;11.80;5.60;;;3.90;51.10;;;;;;5014314;28;20480;-67
2022/03/14 03:48:13;;;;;;;8.20;5.43;;;3.80;51.30;;;;;;5014341;28;20428;-67
2022/03/14 03:50:39;;;;;;;8.47;4.73;;;3.80;51.30;;;;;;5014290;28;20637;-67
2022/03/14 03:53:04;;;;;;;10.27;5.80;;;3.80;51.20;;;;;;5014455;28;20502;-66
2022/03/14 03:55:30;;;;;;;18.87;6.70;;;3.80;51.40;;;;;;5014280;28;20180;-67
2022/03/14 03:57:55;;;;;;;6.70;4.47;;;3.80;51.20;;;;;;5014280;28;20800;-66
2022/03/14 04:00:22;;;;;;;11.43;5.37;;;3.80;51.20;;;;;;5013991;28;20172;-66
2022/03/14 04:02:48;;;;;;;6.43;3.70;;;3.80;51.20;;;;;;5014044;28;20204;-66
2022/03/14 04:05:16;;;;;;;5.73;3.57;;;3.80;51.30;;;;;;5014001;28;20407;-67
2022/03/14 04:07:43;;;;;;;4.27;3.80;;;3.70;51.40;;;;;;5014145;28;20591;-67
2022/03/14 04:10:11;;;;;;;8.80;5.57;;;3.80;51.40;;;;;;5014063;28;20803;-67
2022/03/14 04:12:39;;;;;;;6.73;4.60;;;3.80;51.50;;;;;;5013989;28;20438;-65
2022/03/14 04:15:09;;;;;;;7.77;5.40;;;3.70;51.30;;;;;;5014021;28;20411;-65
2022/03/14 04:17:38;;;;;;;8.13;5.80;;;3.60;51.50;;;;;;5013836;28;20801;-67
2022/03/14 04:20:06;;;;;;;9.13;4.27;;;3.60;51.70;;;;;;5013819;28;20407;-66
2022/03/14 04:22:32;;;;;;;17.93;6.23;;;3.60;51.70;;;;;;5013328;28;20462;-66
2022/03/14 04:24:59;;;;;;;6.63;5.30;;;3.60;52.20;;;;;;5013835;28;20781;-66
2022/03/14 04:27:25;;;;;;;7.50;4.93;;;3.60;51.70;;;;;;5013721;28;20812;-66
2022/03/14 04:29:50;;;;;;;10.63;4.80;;;3.60;51.80;;;;;;5014097;28;20415;-67
2022/03/14 04:32:16;;;;;;;7.43;5.63;;;3.60;51.70;;;;;;5013777;28;20917;-67
2022/03/14 04:34:41;;;;;;;5.27;4.33;;;3.60;51.80;;;;;;5013214;28;20168;-67
2022/03/14 04:37:07;;;;;;;6.43;4.73;;;3.50;51.80;;;;;;5013926;28;20226;-67
2022/03/14 04:39:33;;;;;;;12.37;5.80;;;3.50;51.90;;;;;;5013768;28;20180;-67
2022/03/14 04:41:59;;;;;;;9.73;4.67;;;3.50;52.20;;;;;;5013150;28;20563;-67
2022/03/14 04:44:24;;;;;;;8.43;4.60;;;3.50;52.30;;;;;;5013652;28;20214;-67
2022/03/14 04:46:50;;;;;;;12.07;5.03;;;3.40;52.20;;;;;;5013340;28;20403;-66
2022/03/14 04:49:15;;;;;;;6.63;5.03;;;3.40;52.40;;;;;;5013630;28;20168;-67
2022/03/14 04:51:41;;;;;;;5.70;4.10;;;3.40;52.50;;;;;;5013422;28;20188;-67
2022/03/14 04:54:07;;;;;;;7.83;4.00;;;3.40;52.50;;;;;;5013369;28;20625;-67
2022/03/14 04:56:33;;;;;;;8.60;5.20;;;3.40;52.60;;;;;;5013074;28;20411;-66
2022/03/14 04:58:58;;;;;;;10.90;5.50;;;3.40;52.60;;;;;;5013113;28;20259;-67
2022/03/14 05:01:24;;;;;;;7.70;5.33;;;3.30;52.60;;;;;;5013120;28;20213;-66
2022/03/14 05:03:52;;;;;;;6.50;4.77;;;3.30;52.80;;;;;;5012982;28;20172;-67
2022/03/14 05:06:21;;;;;;;7.10;5.13;;;3.30;52.80;;;;;;5013236;28;20167;-67
2022/03/14 05:08:47;;;;;;;7.60;3.87;;;3.30;53.00;;;;;;5014225;28;20781;-67
2022/03/14 05:11:14;;;;;;;8.83;5.83;;;3.30;52.80;;;;;;5014137;28;20435;-66
2022/03/14 05:13:40;;;;;;;11.90;4.43;;;3.30;52.80;;;;;;5013633;28;20416;-68
2022/03/14 05:16:05;;;;;;;11.33;6.50;;;3.20;53.00;;;;;;5012719;28;20846;-67
2022/03/14 05:18:31;;;;;;;6.83;6.13;;;3.20;53.00;;;;;;5012733;28;20172;-67
2022/03/14 05:20:56;;;;;;;11.03;5.83;;;3.20;53.10;;;;;;5012686;28;20576;-67
2022/03/14 05:23:23;;;;;;;7.47;4.97;;;3.10;53.50;;;;;;5012537;28;20168;-67
2022/03/14 05:25:48;;;;;;;11.57;6.20;;;3.10;53.50;;;;;;5012810;28;20179;-67
2022/03/14 05:28:14;;;;;;;9.70;6.13;;;3.10;53.40;;;;;;5012474;28;20407;-67
2022/03/14 05:30:40;;;;;;;5.43;4.17;;;3.10;53.60;;;;;;5012617;28;20199;-67
2022/03/14 05:33:06;;;;;;;8.67;7.37;;;3.10;53.70;;;;;;5012513;28;20424;-66
2022/03/14 05:35:31;;;;;;;10.70;6.70;;;3.00;53.80;;;;;;5012412;28;20654;-67
2022/03/14 05:37:57;;;;;;;6.83;4.70;;;3.00;53.90;;;;;;5012377;28;20173;-66
2022/03/14 05:40:22;;;;;;;10.43;5.70;;;3.00;54.00;;;;;;5012018;28;20191;-67
2022/03/14 05:42:49;;;;;;;9.43;7.20;;;3.00;54.10;;;;;;5012033;28;20204;-66
2022/03/14 05:45:16;;;;;;;7.90;4.80;;;3.00;54.10;;;;;;5011959;28;20323;-67
2022/03/14 05:47:42;;;;;;;10.07;6.00;;;3.00;54.30;;;;;;5012903;28;20412;-66
2022/03/14 05:50:08;;;;;;;8.30;4.57;;;3.00;54.20;;;;;;5012428;28;20780;-66
2022/03/14 05:52:34;;;;;;;8.90;5.53;;;3.00;54.00;;;;;;5012240;28;20427;-66
2022/03/14 05:54:59;;;;;;;7.20;5.70;;;3.00;54.00;;;;;;5011976;28;20923;-67
2022/03/14 05:57:25;;;;;;;11.03;5.50;;;3.10;53.90;;;;;;5012442;28;20168;-67
2022/03/14 05:59:51;;;;;;;7.43;6.30;;;3.10;54.10;;;;;;5012206;28;20611;-66
2022/03/14 06:02:24;;;;;;;14.27;6.00;;;3.10;54.00;;;;;;5012004;28;20204;-67
2022/03/14 06:04:50;;;;;;;9.90;5.00;;;3.20;53.90;;;;;;5012323;28;20218;-67
2022/03/14 06:07:19;;;;;;;9.50;6.40;;;3.20;53.90;;;;;;5012101;28;20410;-65
2022/03/14 06:09:45;;;;;;;6.77;4.90;;;3.20;53.80;;;;;;5012171;28;20403;-67
2022/03/14 06:12:11;;;;;;;10.03;5.33;;;3.30;53.90;;;;;;5011743;28;20935;-67
2022/03/14 06:14:36;;;;;;;12.13;7.37;;;3.40;53.80;;;;;;5012024;28;20414;-67
2022/03/14 06:17:02;;;;;;;8.83;6.20;;;3.50;53.70;;;;;;5012558;28;20176;-66
2022/03/14 06:19:27;;;;;;;6.07;4.20;;;3.90;53.60;;;;;;5011888;28;20172;-66
2022/03/14 06:21:53;;;;;;;11.47;5.70;;;4.20;52.90;;;;;;5011611;28;20602;-66
2022/03/14 06:24:18;;;;;;;9.57;5.70;;;4.70;52.30;;;;;;5011940;28;20200;-68
2022/03/14 06:26:44;;;;;;;6.97;5.83;;;5.10;51.90;;;;;;5011615;28;20191;-67
2022/03/14 06:29:10;;;;;;;13.73;7.40;;;5.70;50.90;;;;;;5011821;28;20203;-67
2022/03/14 06:31:35;;;;;;;11.30;6.43;;;6.40;50.60;;;;;;5011910;28;20192;-65
2022/03/14 06:34:01;;;;;;;7.60;5.60;;;6.50;49.40;;;;;;5011680;28;20953;-66
2022/03/14 06:36:28;;;;;;;8.10;5.73;;;6.20;49.40;;;;;;5011665;28;20164;-66
2022/03/14 06:38:59;;;;;;;10.47;6.50;;;6.40;48.80;;;;;;5011601;28;20529;-67
2022/03/14 06:41:29;;;;;;;10.23;6.80;;;6.40;48.40;;;;;;5011423;28;20838;-67
2022/03/14 06:43:56;;;;;;;13.70;5.73;;;6.90;48.20;;;;;;5011580;28;20786;-65
2022/03/14 06:46:22;;;;;;;14.00;5.80;;;7.20;47.60;;;;;;5011578;28;20457;-66
2022/03/14 06:48:48;;;;;;;9.77;5.47;;;7.50;47.20;;;;;;5011739;28;20407;-66
2022/03/14 06:51:13;;;;;;;12.53;6.53;;;7.60;46.50;;;;;;5011617;28;20439;-65
2022/03/14 06:53:39;;;;;;;11.00;7.20;;;7.60;46.80;;;;;;5011473;28;20318;-65
2022/03/14 06:56:05;;;;;;;7.30;5.47;;;7.40;47.00;;;;;;5012037;28;20172;-66
2022/03/14 06:58:31;;;;;;;8.37;5.30;;;7.70;46.80;;;;;;5015321;28;20560;-68
2022/03/14 07:00:57;;;;;;;9.17;5.93;;;8.20;46.10;;;;;;5015203;28;20557;-68
2022/03/14 07:03:23;;;;;;;11.73;6.27;;;8.70;44.90;;;;;;5015236;28;20152;-68
2022/03/14 07:05:49;;;;;;;8.17;5.03;;;8.70;44.90;;;;;;5015261;28;20502;-68
2022/03/14 07:08:14;;;;;;;14.33;6.10;;;8.60;44.60;;;;;;5015892;28;20412;-68
2022/03/14 07:10:40;;;;;;;12.37;5.90;;;8.70;46.70;;;;;;5014928;28;20188;-70
2022/03/14 07:13:05;;;;;;;8.37;5.70;;;9.00;44.70;;;;;;5019048;28;20658;-68
2022/03/14 07:15:32;;;;;;;6.60;5.53;;;9.30;43.40;;;;;;5033782;28;20779;-66
2022/03/14 07:17:58;;;;;;;9.00;6.10;;;9.30;43.50;;;;;;5034055;28;20172;-65
2022/03/14 07:20:25;;;;;;;10.97;6.90;;;8.60;43.80;;;;;;5034423;28;20445;-66
2022/03/14 07:23:00;;;;;;;10.90;6.13;;;8.70;44.50;;;;;;5033587;28;20237;-65
2022/03/14 07:25:32;;;;;;;9.90;5.30;;;9.00;43.80;;;;;;5034796;28;20395;-65
2022/03/14 07:28:02;;;;;;;9.60;5.07;;;9.60;43.30;;;;;;5034504;28;20783;-66
2022/03/14 07:30:28;;;;;;;8.60;6.10;;;10.10;42.10;;;;;;5034707;28;20410;-66
2022/03/14 07:32:53;;;;;;;7.53;5.70;;;10.60;41.40;;;;;;5034379;28;20409;-68
2022/03/14 07:35:20;;;;;;;13.17;5.73;;;10.60;41.00;;;;;;5034413;28;20165;-67
2022/03/14 07:37:46;;;;;;;9.87;6.10;;;10.40;41.00;;;;;;5034435;28;20203;-67
2022/03/14 07:40:13;;;;;;;7.20;5.30;;;9.80;41.80;;;;;;5034471;28;20413;-67
2022/03/14 07:42:40;;;;;;;7.90;6.57;;;10.80;41.00;;;;;;5033896;28;20470;-66
2022/03/14 07:45:06;;;;;;;9.90;6.13;;;11.10;40.30;;;;;;5034252;28;20452;-67
2022/03/14 07:47:32;;;;;;;12.87;6.20;;;11.10;40.10;;;;;;5034285;28;20410;-67
2022/03/14 07:49:58;;;;;;;8.80;6.20;;;11.40;39.80;;;;;;5034086;28;20406;-66
2022/03/14 07:52:24;;;;;;;9.80;6.97;;;11.80;39.40;;;;;;5034170;28;20203;-66
2022/03/14 07:54:49;;;;;;;7.80;6.23;;;11.70;39.10;;;;;;5033990;28;20933;-67
2022/03/14 07:57:14;;;;;;;9.50;6.87;;;11.00;39.40;;;;;;5034030;28;20163;-68
2022/03/14 07:59:40;;;;;;;9.70;5.80;;;11.50;40.20;;;;;;5033856;28;20674;-66
2022/03/14 08:02:06;;;;;;;8.90;5.60;;;12.50;39.20;;;;;;5033687;28;20584;-65
2022/03/14 08:04:32;;;;;;;8.57;7.40;;;12.10;39.30;;;;;;5033775;28;20168;-65
2022/03/14 08:06:58;;;;;;;10.00;6.77;;;11.80;39.00;;;;;;5034262;28;20407;-65
2022/03/14 08:09:23;;;;;;;11.33;5.60;;;11.80;39.40;;;;;;5033263;28;20772;-65
2022/03/14 08:11:49;;;;;;;10.13;7.00;;;12.30;38.90;;;;;;5033575;28;20820;-65
2022/03/14 08:14:15;;;;;;;9.97;5.63;;;12.00;38.70;;;;;;5016761;28;20178;-65
2022/03/14 08:16:40;;;;;;;11.70;5.77;;;12.00;39.10;;;;;;5014618;28;20952;-65
2022/03/14 08:19:06;;;;;;;8.13;6.60;;;12.60;39.30;;;;;;5028073;28;20170;-65
2022/03/14 08:21:33;;;;;;;8.73;6.50;;;12.50;39.20;;;;;;5034175;28;20562;-66
2022/03/14 08:23:58;;;;;;;13.67;6.43;;;13.00;38.00;;;;;;5034255;28;20178;-65
2022/03/14 08:26:24;;;;;;;8.40;5.70;;;12.90;38.40;;;;;;5033828;28;20403;-65
2022/03/14 08:28:50;;;;;;;8.33;5.90;;;12.90;38.50;;;;;;5033742;28;20542;-67
2022/03/14 08:31:17;;;;;;;10.50;6.43;;;12.70;37.70;;;;;;5024293;28;20210;-69
2022/03/14 08:33:44;;;;;;;10.00;6.77;;;13.10;38.60;;;;;;5028979;28;20910;-67
2022/03/14 08:36:10;;;;;;;9.27;6.33;;;13.00;38.20;;;;;;5033145;28;20414;-67
2022/03/14 08:38:37;;;;;;;9.80;6.93;;;13.30;38.60;;;;;;5033313;28;20409;-66
2022/03/14 08:41:02;;;;;;;10.23;6.03;;;13.60;38.00;;;;;;5032952;28;20218;-66
2022/03/14 08:43:28;;;;;;;14.87;7.70;;;14.10;37.60;;;;;;5033162;28;20416;-66
2022/03/14 08:45:54;;;;;;;12.63;6.47;;;12.20;38.00;;;;;;5032890;28;20172;-65
2022/03/14 08:48:20;;;;;;;10.17;5.90;;;12.20;38.80;;;;;;5033856;28;20206;-67
2022/03/14 08:50:45;;;;;;;8.30;5.30;;;13.10;38.00;;;;;;5033127;28;20966;-67
2022/03/14 08:53:11;;;;;;;9.40;5.87;;;13.60;37.70;;;;;;5032932;28;20170;-67
2022/03/14 08:55:36;;;;;;;7.80;5.03;;;12.80;37.10;;;;;;5033031;28;20218;-66
2022/03/14 08:58:03;;;;;;;7.10;5.20;;;13.60;38.40;;;;;;5032828;28;20207;-68
2022/03/14 09:00:29;;;;;;;11.90;6.00;;;14.00;36.80;;;;;;5032755;28;20236;-66
2022/03/14 09:02:55;;;;;;;7.77;6.43;;;13.50;37.90;;;;;;5032777;28;20413;-67
2022/03/14 09:05:22;;;;;;;7.33;6.40;;;13.80;37.10;;;;;;5032618;28;20504;-67
2022/03/14 09:07:48;;;;;;;9.87;5.87;;;13.50;37.50;;;;;;5032304;28;20415;-67
2022/03/14 09:10:15;;;;;;;6.77;5.43;;;14.10;37.30;;;;;;5032656;28;20408;-67
2022/03/14 09:12:42;;;;;;;7.33;6.07;;;12.90;38.00;;;;;;5032571;28;20467;-68
2022/03/14 09:15:10;;;;;;;6.70;5.43;;;13.70;38.10;;;;;;5032712;28;20802;-67
2022/03/14 09:17:45;;;;;;;7.13;5.30;;;13.80;36.80;;;;;;5032419;28;20416;-66
2022/03/14 09:20:12;;;;;;;10.73;5.50;;;13.40;37.20;;;;;;5031321;28;20440;-67
2022/03/14 09:22:38;;;;;;;7.63;6.03;;;13.50;38.00;;;;;;5024317;28;20460;-67
2022/03/14 09:25:04;;;;;;;6.00;5.00;;;14.10;36.70;;;;;;5014109;28;20917;-65
2022/03/14 09:27:30;;;;;;;7.30;5.23;;;13.10;37.00;;;;;;5030116;28;20429;-66
2022/03/14 09:29:55;;;;;;;7.27;5.67;;;13.90;37.60;;;;;;5040992;28;20949;-66
2022/03/14 09:32:21;;;;;;;7.30;5.30;;;13.50;37.30;;;;;;5015644;28;20406;-67
2022/03/14 09:34:46;;;;;;;6.10;5.37;;;14.30;36.60;;;;;;5012288;28;20259;-67
2022/03/14 09:37:12;;;;;;;8.27;5.40;;;13.50;37.10;;;;;;5012646;28;20549;-66
2022/03/14 09:39:37;;;;;;;5.47;4.70;;;13.70;36.90;;;;;;4995833;28;20231;-66
2022/03/14 09:42:04;;;;;;;6.70;4.80;;;14.00;36.90;;;;;;5031716;28;20236;-65
2022/03/14 09:44:30;;;;;;;7.70;5.60;;;13.50;37.30;;;;;;5031978;28;20545;-66
2022/03/14 09:47:04;;;;;;;6.53;5.40;;;14.30;36.70;;;;;;5033035;28;20906;-65
2022/03/14 09:49:31;;;;;;;5.40;4.83;;;13.20;37.30;;;;;;5032012;28;20397;-66
2022/03/14 09:51:59;;;;;;;7.03;5.67;;;13.20;37.70;;;;;;5032098;28;20442;-65
2022/03/14 09:54:24;;;;;;;7.17;5.83;;;13.70;37.10;;;;;;5031850;28;20456;-66
2022/03/14 09:56:50;;;;;;;9.43;5.70;;;13.50;37.00;;;;;;5031811;28;20523;-66
2022/03/14 09:59:15;;;;;;;6.63;5.93;;;13.20;37.40;;;;;;5032080;28;20664;-66
2022/03/14 10:01:41;;;;;;;6.60;5.60;;;13.00;38.00;;;;;;5031857;28;20599;-65
2022/03/14 10:04:08;;;;;;;6.93;5.87;;;12.80;37.70;;;;;;5031883;28;20658;-66
2022/03/14 10:06:35;;;;;;;8.00;5.23;;;12.50;38.00;;;;;;5031649;28;20414;-66
2022/03/14 10:09:02;;;;;;;5.77;5.10;;;12.10;38.40;;;;;;5031529;28;20774;-68
2022/03/14 10:11:28;;;;;;;9.00;5.57;;;11.70;38.80;;;;;;5031686;28;20472;-68
2022/03/14 10:13:54;;;;;;;6.00;5.20;;;11.60;39.40;;;;;;5031756;28;20438;-68
2022/03/14 10:16:20;;;;;;;8.27;4.50;;;11.50;39.70;;;;;;5032145;28;20630;-66
2022/03/14 10:18:54;;;;;;;5.90;4.40;;;11.70;39.90;;;;;;5032096;28;20193;-66
2022/03/14 10:21:35;;;;;;;5.50;4.37;;;11.30;40.00;;;;;;5031709;28;20996;-66
2022/03/14 10:24:07;;;;;;;8.40;4.73;;;11.60;40.10;;;;;;5032155;28;20414;-66
2022/03/14 10:26:33;;;;;;;5.13;4.17;;;11.60;39.60;;;;;;5022910;28;20439;-68
2022/03/14 10:29:00;;;;;;;6.03;4.10;;;11.80;39.50;;;;;;5031454;28;20422;-67
2022/03/14 10:31:31;;;;;;;5.07;4.20;;;11.60;39.40;;;;;;5031044;28;20461;-67
2022/03/14 10:34:03;;;;;;;7.37;5.20;;;11.70;39.40;;;;;;5031401;28;20426;-67
2022/03/14 10:36:53;;;;;;;5.10;4.00;;;11.70;39.20;;;;;;5031665;28;20438;-67
2022/03/14 10:39:20;;;;;;;6.77;4.73;;;11.60;39.20;;;;;;5031554;28;20394;-67
2022/03/14 10:42:00;;;;;;;5.50;4.37;;;11.80;39.20;;;;;;5021335;28;20494;-68
2022/03/14 10:44:25;;;;;;;4.63;3.40;;;11.80;39.20;;;;;;5026783;28;20787;-66
2022/03/14 10:46:51;;;;;;;5.90;3.83;;;11.80;39.30;;;;;;5049220;28;20420;-67
2022/03/14 10:49:17;;;;;;;9.20;4.53;;;11.90;39.70;;;;;;5043220;28;20174;-67
2022/03/14 10:51:56;;;;;;;4.23;3.67;;;12.00;39.40;;;;;;5039759;28;20286;-66
2022/03/14 10:54:22;;;;;;;5.97;3.77;;;12.00;39.40;;;;;;5031706;28;20229;-67
2022/03/14 10:57:07;;;;;;;5.63;4.03;;;12.00;40.00;;;;;;5032097;28;20410;-67
2022/03/14 10:59:44;;;;;;;5.50;4.20;;;12.10;39.50;;;;;;5032063;28;20179;-66
2022/03/14 11:02:11;;;;;;;7.37;3.83;;;12.00;39.40;;;;;;5030914;28;20461;-66
2022/03/14 11:04:59;;;;;;;5.30;4.13;;;12.20;39.50;;;;;;5030996;28;20498;-66
2022/03/14 11:07:32;;;;;;;5.90;3.93;;;12.10;39.50;;;;;;5030443;28;20410;-66
2022/03/14 11:10:07;;;;;;;6.30;4.27;;;12.20;40.00;;;;;;5026812;28;20430;-66
2022/03/14 11:12:32;;;;;;;5.77;5.03;;;12.30;40.00;;;;;;5026651;28;20437;-67
2022/03/14 11:15:03;;;;;;;10.97;5.10;;;12.30;39.60;;;;;;5029243;28;20456;-67
2022/03/14 11:17:33;;;;;;;5.70;4.20;;;12.20;40.30;;;;;;5029975;28;20661;-66
2022/03/14 11:19:59;;;;;;;5.37;4.07;;;12.30;40.20;;;;;;5029630;28;20426;-66
2022/03/14 11:22:30;;;;;;;7.30;4.47;;;12.10;40.30;;;;;;5029810;28;20473;-66
2022/03/14 11:25:00;;;;;;;5.27;4.73;;;12.40;40.50;;;;;;5029390;28;20450;-65
2022/03/14 11:27:35;;;;;;;5.77;4.83;;;12.50;40.20;;;;;;5029860;28;20500;-66
2022/03/14 11:30:07;;;;;;;7.37;4.87;;;12.50;40.30;;;;;;5029474;28;20421;-66
2022/03/14 11:32:34;;;;;;;6.63;4.97;;;12.70;40.30;;;;;;5029784;28;20543;-66
2022/03/14 11:35:02;;;;;;;7.77;4.70;;;12.70;40.10;;;;;;5029807;28;20422;-66
2022/03/14 11:37:31;;;;;;;4.97;4.57;;;12.50;40.10;;;;;;5029786;28;20422;-66
2022/03/14 11:39:57;;;;;;;5.03;3.90;;;12.50;40.50;;;;;;5031160;28;20418;-66
2022/03/14 11:42:23;;;;;;;8.70;5.50;;;12.70;40.50;;;;;;5036788;28;20462;-67
2022/03/14 11:44:50;;;;;;;6.20;4.70;;;12.70;40.40;;;;;;5035410;28;20510;-67
2022/03/14 11:47:21;;;;;;;5.03;3.47;;;12.60;40.40;;;;;;5035409;28;20180;-66
2022/03/14 11:49:47;;;;;;;5.60;3.97;;;12.60;40.20;;;;;;5030792;28;20492;-66
2022/03/14 11:52:25;;;;;;;5.70;4.77;;;12.60;40.60;;;;;;5030157;28;20446;-66
2022/03/14 11:55:01;;;;;;;6.17;4.40;;;12.90;40.60;;;;;;5031449;28;20510;-66
2022/03/14 11:57:35;;;;;;;5.77;4.30;;;13.00;40.20;;;;;;5033187;28;20454;-66
2022/03/14 12:00:24;;;;;;;4.67;3.70;;;13.50;40.30;;;;;;5033177;28;20778;-66
2022/03/14 12:02:55;;;;;;;4.00;3.60;;;13.80;39.90;;;;;;5030917;28;20512;-67
2022/03/14 12:05:21;;;;;;;6.40;4.73;;;13.80;39.60;;;;;;5032788;28;20905;-66
2022/03/14 12:07:47;;;;;;;7.10;4.40;;;14.00;39.40;;;;;;5032221;28;20430;-66
2022/03/14 12:10:26;;;;;;;6.20;4.83;;;14.10;39.00;;;;;;5029978;28;20476;-66
2022/03/14 12:12:55;;;;;;;7.53;4.43;;;14.10;39.20;;;;;;5031134;28;20650;-65
2022/03/14 12:15:51;;;;;;;5.33;4.60;;;14.10;39.10;;;;;;5032203;28;20521;-66
2022/03/14 12:18:23;;;;;;;8.60;4.20;;;14.10;39.60;;;;;;5009300;28;20430;-67
2022/03/14 12:20:52;;;;;;;4.97;4.50;;;13.90;39.60;;;;;;5031973;28;20448;-66
2022/03/14 12:23:27;;;;;;;4.93;3.77;;;13.80;39.20;;;;;;5033978;28;20426;-66
2022/03/14 12:25:53;;;;;;;4.77;4.27;;;14.00;39.70;;;;;;5031289;28;20433;-65
2022/03/14 12:28:34;;;;;;;8.57;4.73;;;14.20;39.70;;;;;;5031565;28;20422;-65
2022/03/14 12:31:03;;;;;;;5.23;4.73;;;13.90;39.90;;;;;;5032147;28;20461;-66
2022/03/14 12:33:36;;;;;;;8.60;3.80;;;13.90;40.30;;;;;;5029000;28;20453;-66
2022/03/14 12:36:23;;;;;;;6.50;4.30;;;13.90;40.50;;;;;;5030115;28;20426;-65
2022/03/14 12:39:08;;;;;;;6.50;4.73;;;13.90;40.70;;;;;;5029582;28;20492;-65
2022/03/14 12:41:35;;;;;;;5.37;4.83;;;13.90;40.30;;;;;;5031805;28;20993;-66
2022/03/14 12:44:00;;;;;;;6.77;5.43;;;13.80;40.60;;;;;;5031235;28;20429;-65
2022/03/14 12:46:27;;;;;;;5.60;4.90;;;14.00;40.90;;;;;;5030376;28;20427;-65
2022/03/14 12:48:54;;;;;;;8.03;4.97;;;14.00;40.40;;;;;;5033288;28;20179;-65
2022/03/14 12:51:31;;;;;;;8.17;4.77;;;14.20;40.60;;;;;;5031445;28;20499;-66